createdAt,value
2023-01-29T00:00:16.274Z,-0.90
2023-01-29T00:03:07.021Z,-0.90
2023-01-29T00:05:37.225Z,-0.90
2023-01-29T00:08:12.288Z,-0.90
2023-01-29T00:10:39.948Z,-0.90
2023-01-29T00:13:08.972Z,-0.90
2023-01-29T00:15:37.154Z,-0.90
2023-01-29T00:18:06.268Z,-0.90
2023-01-29T00:20:36.196Z,-0.80
2023-01-29T00:23:03.924Z,-0.80
2023-01-29T00:25:31.729Z,-0.80
2023-01-29T00:27:59.493Z,-0.80
2023-01-29T00:30:27.339Z,-0.80
2023-01-29T00:32:55.034Z,-0.80
2023-01-29T00:35:25.251Z,-0.80
2023-01-29T00:37:55.009Z,-0.80
2023-01-29T00:40:23.448Z,-0.80
2023-01-29T00:43:11.474Z,-0.80
2023-01-29T00:45:40.831Z,-0.70
2023-01-29T00:48:10.234Z,-0.70
2023-01-29T00:50:38.054Z,-0.70
2023-01-29T00:53:06.107Z,-0.70
2023-01-29T00:55:34.376Z,-0.62
2023-01-29T00:58:02.177Z,-0.60
2023-01-29T01:00:30.177Z,-0.60
2023-01-29T01:03:07.914Z,-0.50
2023-01-29T01:05:39.271Z,-0.50
2023-01-29T01:08:27.387Z,-0.50
2023-01-29T01:11:05.307Z,-0.50
2023-01-29T01:13:34.469Z,-0.60
2023-01-29T01:16:02.268Z,-0.50
2023-01-29T01:18:32.421Z,-0.50
2023-01-29T01:21:01.992Z,-0.50
2023-01-29T01:23:29.773Z,-0.40
2023-01-29T01:25:59.287Z,-0.40
2023-01-29T01:28:29.071Z,-0.40
2023-01-29T01:30:56.898Z,-0.30
2023-01-29T01:33:24.866Z,-0.38
2023-01-29T01:35:53.091Z,-0.40
2023-01-29T01:38:20.812Z,-0.40
2023-01-29T01:40:49.119Z,-0.40
2023-01-29T01:43:16.912Z,-0.40
2023-01-29T01:45:46.767Z,-0.50
2023-01-29T01:48:27.296Z,-0.50
2023-01-29T01:51:06.550Z,-0.50
2023-01-29T01:53:42.224Z,-0.42
2023-01-29T01:56:16.731Z,-0.40
2023-01-29T01:58:53.788Z,-0.40
2023-01-29T02:01:28.147Z,-0.30
2023-01-29T02:04:26.699Z,-0.30
2023-01-29T02:07:16.799Z,-0.28
2023-01-29T02:09:54.015Z,-0.30
2023-01-29T02:12:23.254Z,-0.40
2023-01-29T02:14:52.561Z,-0.40
2023-01-29T02:17:20.776Z,-0.40
2023-01-29T02:20:24.495Z,-0.40
2023-01-29T02:23:01.103Z,-0.38
2023-01-29T02:26:22.316Z,-0.30
2023-01-29T02:29:30.628Z,-0.30
2023-01-29T02:32:21.829Z,-0.30
2023-01-29T02:35:23.224Z,-0.30
2023-01-29T02:38:18.208Z,-0.38
2023-01-29T02:40:55.565Z,-0.40
2023-01-29T02:43:38.684Z,-0.40
2023-01-29T02:46:16.159Z,-0.32
2023-01-29T02:49:02.010Z,-0.30
2023-01-29T02:51:38.210Z,-0.30
2023-01-29T02:54:24.968Z,-0.40
2023-01-29T02:57:02.541Z,-0.50
2023-01-29T03:00:07.661Z,-0.40
2023-01-29T03:02:57.391Z,-0.40
2023-01-29T03:05:45.252Z,-0.30
2023-01-29T03:08:37.228Z,-0.30
2023-01-29T03:11:07.704Z,-0.20
2023-01-29T03:13:40.006Z,-0.20
2023-01-29T03:16:33.338Z,-0.20
2023-01-29T03:19:19.044Z,-0.30
2023-01-29T03:21:59.622Z,-0.30
2023-01-29T03:25:14.425Z,-0.36
2023-01-29T03:28:11.878Z,-0.30
2023-01-29T03:31:10.677Z,-0.30
2023-01-29T03:33:50.749Z,-0.30
2023-01-29T03:36:39.925Z,-0.30
2023-01-29T03:39:11.566Z,-0.38
2023-01-29T03:42:21.776Z,-0.40
2023-01-29T03:45:42.929Z,-0.40
2023-01-29T03:48:56.060Z,-0.44
2023-01-29T03:52:04.347Z,-0.50
2023-01-29T03:54:58.219Z,-0.50
2023-01-29T03:57:56.048Z,-0.52
2023-01-29T04:00:32.423Z,-0.50
2023-01-29T04:03:08.160Z,-0.46
2023-01-29T04:05:49.787Z,-0.50
2023-01-29T04:08:28.535Z,-0.60
2023-01-29T04:11:06.054Z,-0.66
2023-01-29T04:13:36.904Z,-0.60
2023-01-29T04:16:10.785Z,-0.60
2023-01-29T04:18:39.695Z,-0.60
2023-01-29T04:21:07.732Z,-0.80
2023-01-29T04:23:36.584Z,-0.80
2023-01-29T04:26:27.722Z,-0.80
2023-01-29T04:29:38.187Z,-0.80
2023-01-29T04:32:31.145Z,-0.80
2023-01-29T04:35:12.992Z,-0.90
2023-01-29T04:38:11.563Z,-0.86
2023-01-29T04:41:03.500Z,-0.80
2023-01-29T04:44:11.587Z,-0.90
2023-01-29T04:47:20.140Z,-0.98
2023-01-29T04:50:26.998Z,-1.00
2023-01-29T04:53:14.941Z,-1.00
2023-01-29T04:55:47.297Z,-1.00
2023-01-29T04:58:36.590Z,-1.00
2023-01-29T05:01:11.107Z,-1.00
2023-01-29T05:03:43.610Z,-1.00
2023-01-29T05:06:13.277Z,-1.10
2023-01-29T05:08:42.338Z,-1.10
2023-01-29T05:11:11.511Z,-1.10
2023-01-29T05:13:42.560Z,-1.10
2023-01-29T05:16:21.486Z,-1.18
2023-01-29T05:18:49.998Z,-1.20
2023-01-29T05:21:19.177Z,-1.28
2023-01-29T05:23:59.403Z,-1.30
2023-01-29T05:26:46.540Z,-1.20
2023-01-29T05:29:14.266Z,-1.28
2023-01-29T05:31:45.801Z,-1.20
2023-01-29T05:34:13.701Z,-1.20
2023-01-29T05:36:41.812Z,-1.30
2023-01-29T05:39:09.629Z,-1.30
2023-01-29T05:41:38.723Z,-1.34
2023-01-29T05:44:06.583Z,-1.40
2023-01-29T05:46:34.426Z,-1.40
2023-01-29T05:49:02.282Z,-1.40
2023-01-29T05:51:30.128Z,-1.50
2023-01-29T05:53:57.800Z,-1.50
2023-01-29T05:56:29.311Z,-1.50
2023-01-29T05:58:57.104Z,-1.66
2023-01-29T06:01:26.328Z,-1.70
2023-01-29T06:03:54.229Z,-1.70
2023-01-29T06:06:22.413Z,-1.80
2023-01-29T06:08:50.438Z,-1.82
2023-01-29T06:11:18.669Z,-1.80
2023-01-29T06:13:46.596Z,-1.70
2023-01-29T06:16:17.119Z,-1.74
2023-01-29T06:18:44.919Z,-1.80
2023-01-29T06:21:15.199Z,-1.80
2023-01-29T06:23:43.011Z,-1.80
2023-01-29T06:26:14.611Z,-1.70
2023-01-29T06:28:43.861Z,-1.68
2023-01-29T06:31:27.486Z,-1.60
2023-01-29T06:33:59.984Z,-1.60
2023-01-29T06:36:32.285Z,-1.60
2023-01-29T06:39:00.166Z,-1.60
2023-01-29T06:41:28.787Z,-1.60
2023-01-29T06:43:56.667Z,-1.60
2023-01-29T06:46:24.627Z,-1.70
2023-01-29T06:48:53.097Z,-1.62
2023-01-29T06:51:23.010Z,-1.70
2023-01-29T06:53:50.898Z,-1.70
2023-01-29T06:56:18.626Z,-1.70
2023-01-29T06:58:47.596Z,-1.60
2023-01-29T07:01:34.278Z,-1.60
2023-01-29T07:04:04.207Z,-1.50
2023-01-29T07:06:33.093Z,-1.50
2023-01-29T07:09:01.014Z,-1.50
2023-01-29T07:11:28.867Z,-1.50
2023-01-29T07:13:56.852Z,-1.50
2023-01-29T07:16:26.350Z,-1.50
2023-01-29T07:18:54.803Z,-1.50
2023-01-29T07:21:24.875Z,-1.60
2023-01-29T07:23:52.591Z,-1.50
2023-01-29T07:26:20.461Z,-1.50
2023-01-29T07:28:48.228Z,-1.50
2023-01-29T07:31:16.465Z,-1.40
2023-01-29T07:33:46.401Z,-1.40
2023-01-29T07:36:16.176Z,-1.50
2023-01-29T07:38:43.981Z,-1.50
2023-01-29T07:41:12.805Z,-1.56
2023-01-29T07:43:40.588Z,-1.60
2023-01-29T07:46:08.925Z,-1.70
2023-01-29T07:48:37.621Z,-1.72
2023-01-29T07:51:06.264Z,-1.70
2023-01-29T07:53:34.264Z,-1.60
2023-01-29T07:56:02.752Z,-1.60
2023-01-29T07:58:30.761Z,-1.50
2023-01-29T08:00:59.083Z,-1.50
2023-01-29T08:03:26.794Z,-1.40
2023-01-29T08:05:54.539Z,-1.40
2023-01-29T08:08:23.423Z,-1.50
2023-01-29T08:10:51.927Z,-1.50
2023-01-29T08:13:19.702Z,-1.50
2023-01-29T08:15:50.188Z,-1.50
2023-01-29T08:18:18.019Z,-1.50
2023-01-29T08:20:45.762Z,-1.60
2023-01-29T08:23:17.071Z,-1.60
2023-01-29T08:25:45.197Z,-1.60
2023-01-29T08:28:13.152Z,-1.60
2023-01-29T08:30:41.154Z,-1.56
2023-01-29T08:33:10.424Z,-1.60
2023-01-29T08:35:41.307Z,-1.60
2023-01-29T08:38:09.950Z,-1.60
2023-01-29T08:40:37.739Z,-1.60
2023-01-29T08:43:09.471Z,-1.56
2023-01-29T08:45:42.577Z,-1.52
2023-01-29T08:48:13.063Z,-1.50
2023-01-29T08:50:41.120Z,-1.42
2023-01-29T08:53:10.148Z,-1.40
2023-01-29T08:55:41.385Z,-1.30
2023-01-29T08:58:11.782Z,-1.30
2023-01-29T09:00:39.900Z,-1.30
2023-01-29T09:03:08.249Z,-1.20
2023-01-29T09:05:38.250Z,-1.30
2023-01-29T09:08:08.945Z,-1.30
2023-01-29T09:10:36.859Z,-1.30
2023-01-29T09:13:04.744Z,-1.22
2023-01-29T09:15:32.817Z,-1.20
2023-01-29T09:18:05.413Z,-1.10
2023-01-29T09:20:34.049Z,-1.10
2023-01-29T09:23:11.500Z,-1.00
2023-01-29T09:25:40.285Z,-1.00
2023-01-29T09:28:08.125Z,-1.00
2023-01-29T09:30:37.975Z,-1.00
2023-01-29T09:33:07.499Z,-0.96
2023-01-29T09:35:35.490Z,-0.90
2023-01-29T09:38:03.404Z,-0.90
2023-01-29T09:40:40.230Z,-0.80
2023-01-29T09:43:23.306Z,-0.80
2023-01-29T09:46:05.802Z,-0.70
2023-01-29T09:48:36.859Z,-0.70
2023-01-29T09:51:19.554Z,-0.70
2023-01-29T09:54:10.908Z,-0.68
2023-01-29T09:56:39.191Z,-0.60
2023-01-29T09:59:14.467Z,-0.58
2023-01-29T10:01:55.606Z,-0.50
2023-01-29T10:04:42.380Z,-0.40
2023-01-29T10:07:45.329Z,-0.30
2023-01-29T10:10:31.712Z,-0.30
2023-01-29T10:13:21.243Z,-0.20
2023-01-29T10:16:53.112Z,-0.20
2023-01-29T10:19:56.365Z,-0.02
2023-01-29T10:22:54.430Z,0.00
2023-01-29T10:25:25.059Z,0.00
2023-01-29T10:27:59.859Z,0.02
2023-01-29T10:30:41.800Z,0.10
2023-01-29T10:33:49.514Z,0.20
2023-01-29T10:36:33.068Z,0.30
2023-01-29T10:39:00.900Z,0.50
2023-01-29T10:42:12.094Z,0.70
2023-01-29T10:45:17.972Z,0.82
2023-01-29T10:48:49.861Z,0.80
2023-01-29T10:52:00.285Z,0.80
2023-01-29T10:55:04.145Z,0.90
2023-01-29T10:58:04.967Z,0.90
2023-01-29T11:00:41.392Z,0.90
2023-01-29T11:03:27.955Z,1.00
2023-01-29T11:06:27.346Z,1.00
2023-01-29T11:09:35.231Z,1.00
2023-01-29T11:12:13.364Z,1.00
2023-01-29T11:15:07.065Z,1.00
2023-01-29T11:17:36.651Z,1.00
2023-01-29T11:20:25.152Z,1.00
2023-01-29T11:22:55.830Z,1.00
2023-01-29T11:25:24.801Z,1.00
2023-01-29T11:28:00.977Z,1.10
2023-01-29T11:30:34.115Z,1.12
2023-01-29T11:33:26.430Z,1.24
2023-01-29T11:35:56.115Z,1.30
2023-01-29T11:38:31.948Z,1.34
2023-01-29T11:41:19.959Z,1.30
2023-01-29T11:43:47.740Z,1.30
2023-01-29T11:46:17.216Z,1.30
2023-01-29T11:48:58.960Z,1.30
2023-01-29T11:51:37.542Z,1.40
2023-01-29T11:54:06.569Z,1.58
2023-01-29T11:56:42.968Z,1.68
2023-01-29T11:59:44.660Z,1.70
2023-01-29T12:02:31.674Z,1.70
2023-01-29T12:05:19.642Z,1.78
2023-01-29T12:07:51.615Z,1.80
2023-01-29T12:10:41.142Z,1.80
2023-01-29T12:13:27.132Z,1.70
2023-01-29T12:16:40.529Z,1.70
2023-01-29T12:19:36.704Z,1.70
2023-01-29T12:22:58.317Z,1.60
2023-01-29T12:25:35.248Z,1.58
2023-01-29T12:28:57.599Z,1.60
2023-01-29T12:31:56.319Z,1.70
2023-01-29T12:34:48.359Z,1.70
2023-01-29T12:37:42.292Z,1.80
2023-01-29T12:40:17.588Z,1.80
2023-01-29T12:42:56.614Z,1.80
2023-01-29T12:45:29.486Z,1.86
2023-01-29T12:48:05.616Z,1.86
2023-01-29T12:50:37.021Z,1.90
2023-01-29T12:53:34.165Z,2.00
2023-01-29T12:56:18.510Z,2.10
2023-01-29T12:58:52.837Z,2.30
2023-01-29T13:01:36.927Z,2.40
2023-01-29T13:04:37.063Z,2.62
2023-01-29T13:07:19.394Z,2.80
2023-01-29T13:09:58.169Z,2.90
2023-01-29T13:12:27.393Z,3.00
2023-01-29T13:15:01.439Z,3.00
2023-01-29T13:17:51.183Z,3.10
2023-01-29T13:20:31.744Z,3.20
2023-01-29T13:23:44.447Z,3.30
2023-01-29T13:26:20.288Z,3.30
2023-01-29T13:28:49.618Z,3.30
2023-01-29T13:31:37.842Z,3.30
2023-01-29T13:34:19.552Z,3.30
2023-01-29T13:36:52.720Z,3.30
2023-01-29T13:39:37.971Z,3.26
2023-01-29T13:42:20.147Z,3.20
2023-01-29T13:44:56.634Z,3.20
2023-01-29T13:47:29.331Z,3.20
2023-01-29T13:50:49.821Z,3.30
2023-01-29T13:53:27.353Z,3.38
2023-01-29T13:55:55.253Z,3.40
2023-01-29T13:58:31.798Z,3.40
2023-01-29T14:01:01.785Z,3.40
2023-01-29T14:03:35.907Z,3.40
2023-01-29T14:06:42.282Z,3.46
2023-01-29T14:09:35.020Z,3.50
2023-01-29T14:12:25.066Z,3.50
2023-01-29T14:14:54.817Z,3.60
2023-01-29T14:17:27.027Z,3.60
2023-01-29T14:20:19.693Z,3.50
2023-01-29T14:22:57.755Z,3.50
2023-01-29T14:25:35.160Z,3.30
2023-01-29T14:28:14.316Z,3.24
2023-01-29T14:30:49.260Z,3.20
2023-01-29T14:33:32.333Z,3.30
2023-01-29T14:36:09.267Z,3.40
2023-01-29T14:38:47.425Z,3.46
2023-01-29T14:41:30.451Z,3.50
2023-01-29T14:44:59.133Z,3.50
2023-01-29T14:47:27.009Z,3.32
2023-01-29T14:49:59.670Z,3.20
2023-01-29T14:52:41.570Z,3.20
2023-01-29T14:55:31.223Z,3.18
2023-01-29T14:57:59.632Z,3.10
2023-01-29T15:00:32.955Z,3.08
2023-01-29T15:03:12.760Z,3.04
2023-01-29T15:05:42.528Z,3.00
2023-01-29T15:08:30.122Z,3.00
2023-01-29T15:11:27.500Z,3.00
2023-01-29T15:14:40.949Z,3.00
2023-01-29T15:17:09.427Z,3.00
2023-01-29T15:19:45.876Z,3.00
2023-01-29T15:22:20.021Z,2.92
2023-01-29T15:25:22.450Z,2.80
2023-01-29T15:27:51.135Z,2.64
2023-01-29T15:30:29.703Z,2.60
2023-01-29T15:33:05.635Z,2.50
2023-01-29T15:35:43.416Z,2.50
2023-01-29T15:38:23.324Z,2.44
2023-01-29T15:41:17.411Z,2.40
2023-01-29T15:43:58.548Z,2.40
2023-01-29T15:46:36.523Z,2.40
2023-01-29T15:49:11.849Z,2.44
2023-01-29T15:51:39.807Z,2.40
2023-01-29T15:54:15.967Z,2.30
2023-01-29T15:56:52.743Z,2.30
2023-01-29T15:59:35.897Z,2.30
2023-01-29T16:02:39.582Z,2.20
2023-01-29T16:05:40.912Z,2.20
2023-01-29T16:08:16.391Z,2.20
2023-01-29T16:10:48.286Z,2.14
2023-01-29T16:13:31.096Z,2.20
2023-01-29T16:16:31.019Z,2.20
2023-01-29T16:19:01.390Z,2.30
2023-01-29T16:21:40.004Z,2.30
2023-01-29T16:24:22.707Z,2.30
2023-01-29T16:27:04.787Z,2.30
2023-01-29T16:29:35.457Z,2.30
2023-01-29T16:32:05.783Z,2.20
2023-01-29T16:34:43.156Z,2.20
2023-01-29T16:37:40.498Z,2.20
2023-01-29T16:40:33.408Z,2.28
2023-01-29T16:43:46.828Z,2.40
2023-01-29T16:46:31.914Z,2.60
2023-01-29T16:49:01.122Z,2.78
2023-01-29T16:51:36.985Z,2.88
2023-01-29T16:54:26.814Z,2.90
2023-01-29T16:57:00.235Z,3.00
2023-01-29T16:59:38.407Z,3.10
2023-01-29T17:02:37.100Z,3.20
2023-01-29T17:05:21.808Z,3.30
2023-01-29T17:07:50.726Z,3.30
2023-01-29T17:10:23.280Z,3.40
2023-01-29T17:13:05.449Z,3.40
2023-01-29T17:15:47.487Z,3.50
2023-01-29T17:18:25.783Z,3.50
2023-01-29T17:20:56.112Z,3.50
2023-01-29T17:23:27.767Z,3.60
2023-01-29T17:25:55.763Z,3.60
2023-01-29T17:28:23.808Z,3.70
2023-01-29T17:31:05.312Z,3.70
2023-01-29T17:33:38.342Z,3.80
2023-01-29T17:36:12.488Z,3.90
2023-01-29T17:38:42.544Z,3.90
2023-01-29T17:41:32.901Z,3.90
2023-01-29T17:44:00.934Z,4.00
2023-01-29T17:46:29.140Z,4.00
2023-01-29T17:48:58.629Z,4.10
2023-01-29T17:51:32.064Z,4.10
2023-01-29T17:54:02.083Z,4.16
2023-01-29T17:56:31.466Z,4.20
2023-01-29T17:58:59.732Z,4.20
2023-01-29T18:01:30.219Z,4.20
2023-01-29T18:04:04.197Z,4.30
2023-01-29T18:06:36.520Z,4.30
2023-01-29T18:11:54.750Z,4.30
2023-01-29T18:14:23.688Z,4.30
2023-01-29T18:16:52.520Z,4.30
2023-01-29T18:19:31.600Z,4.30
2023-01-29T18:22:02.440Z,4.30
2023-01-29T18:24:34.219Z,4.40
2023-01-29T18:27:04.857Z,4.40
2023-01-29T18:29:32.815Z,4.50
2023-01-29T18:32:01.304Z,4.50
2023-01-29T18:34:29.345Z,4.50
2023-01-29T18:36:57.761Z,4.50
2023-01-29T18:39:26.587Z,4.50
2023-01-29T18:41:54.825Z,4.50
2023-01-29T18:44:22.667Z,4.50
2023-01-29T18:46:53.113Z,4.40
2023-01-29T18:49:21.411Z,4.40
2023-01-29T18:51:49.201Z,4.40
2023-01-29T18:54:18.736Z,4.40
2023-01-29T18:57:08.689Z,4.40
2023-01-29T18:59:34.861Z,4.30
2023-01-29T19:02:05.172Z,4.30
2023-01-29T19:04:34.309Z,4.30
2023-01-29T19:07:02.119Z,4.30
2023-01-29T19:09:37.238Z,4.20
2023-01-29T19:12:06.021Z,4.20
2023-01-29T19:14:36.351Z,4.30
2023-01-29T19:17:05.083Z,4.30
2023-01-29T19:19:34.113Z,4.20
2023-01-29T19:22:02.441Z,4.24
2023-01-29T19:24:36.438Z,4.30
2023-01-29T19:27:07.885Z,4.40
2023-01-29T19:29:37.466Z,4.40
2023-01-29T19:32:06.332Z,4.56
2023-01-29T19:34:35.370Z,4.80
2023-01-29T19:37:05.349Z,5.00
2023-01-29T19:39:34.071Z,5.10
2023-01-29T19:42:02.465Z,5.34
2023-01-29T19:44:31.351Z,5.82
2023-01-29T19:47:03.371Z,6.10
2023-01-29T19:49:31.471Z,6.40
2023-01-29T19:52:01.131Z,6.70
2023-01-29T19:54:29.701Z,6.80
2023-01-29T19:57:00.125Z,7.00
2023-01-29T19:59:27.955Z,7.10
2023-01-29T20:01:56.073Z,7.10
2023-01-29T20:04:24.954Z,7.10
2023-01-29T20:06:52.680Z,7.10
2023-01-29T20:09:21.545Z,7.02
2023-01-29T20:11:49.339Z,7.00
2023-01-29T20:14:19.642Z,7.00
2023-01-29T20:16:49.863Z,6.96
2023-01-29T20:19:20.030Z,6.90
2023-01-29T20:21:52.197Z,7.00
2023-01-29T20:24:20.318Z,7.00
2023-01-29T20:26:50.636Z,7.00
2023-01-29T20:29:18.619Z,7.00
2023-01-29T20:31:46.714Z,6.98
2023-01-29T20:34:15.108Z,6.94
2023-01-29T20:36:44.143Z,7.00
2023-01-29T20:39:12.025Z,7.00
2023-01-29T20:41:42.116Z,7.00
2023-01-29T20:44:10.795Z,7.00
2023-01-29T20:46:39.648Z,6.90
2023-01-29T20:49:07.636Z,6.80
2023-01-29T20:51:37.077Z,6.80
2023-01-29T20:54:07.607Z,6.84
2023-01-29T20:56:36.947Z,6.86
2023-01-29T20:59:09.288Z,6.80
2023-01-29T21:01:37.222Z,6.80
2023-01-29T21:04:05.079Z,6.90
2023-01-29T21:06:34.789Z,6.80
2023-01-29T21:09:03.740Z,6.80
2023-01-29T21:11:33.772Z,6.88
2023-01-29T21:14:05.791Z,6.90
2023-01-29T21:16:39.114Z,6.80
2023-01-29T21:19:15.263Z,6.80
2023-01-29T21:21:44.106Z,6.80
2023-01-29T21:24:13.112Z,6.80
2023-01-29T21:26:41.312Z,6.70
2023-01-29T21:29:12.908Z,6.70
2023-01-29T21:31:42.384Z,6.60
2023-01-29T21:34:11.252Z,6.60
2023-01-29T21:36:41.397Z,6.60
2023-01-29T21:39:16.836Z,6.50
2023-01-29T21:42:08.923Z,6.50
2023-01-29T21:44:37.931Z,6.50
2023-01-29T21:47:12.476Z,6.40
2023-01-29T21:49:51.867Z,6.32
2023-01-29T21:52:19.619Z,6.30
2023-01-29T21:54:49.807Z,6.30
2023-01-29T21:57:18.031Z,6.30
2023-01-29T21:59:54.409Z,6.30
2023-01-29T22:02:26.558Z,6.40
2023-01-29T22:05:05.310Z,6.40
2023-01-29T22:07:44.410Z,6.40
2023-01-29T22:10:12.872Z,6.40
2023-01-29T22:12:41.238Z,6.30
2023-01-29T22:15:11.250Z,6.30
2023-01-29T22:17:41.503Z,6.28
2023-01-29T22:20:16.566Z,6.30
2023-01-29T22:22:46.414Z,6.30
2023-01-29T22:25:20.092Z,6.40
2023-01-29T22:27:48.261Z,6.40
2023-01-29T22:30:16.852Z,6.40
2023-01-29T22:32:45.441Z,6.40
2023-01-29T22:35:13.436Z,6.40
2023-01-29T22:37:43.181Z,6.30
2023-01-29T22:40:14.428Z,6.20
2023-01-29T22:42:45.642Z,6.20
2023-01-29T22:45:13.734Z,6.10
2023-01-29T22:47:44.818Z,6.00
2023-01-29T22:50:13.378Z,5.92
2023-01-29T22:52:43.689Z,5.90
2023-01-29T22:55:13.274Z,5.80
2023-01-29T22:57:40.976Z,5.74
2023-01-29T23:00:11.334Z,5.70
2023-01-29T23:02:41.286Z,5.60
2023-01-29T23:05:09.468Z,5.56
2023-01-29T23:07:38.566Z,5.50
2023-01-29T23:10:08.056Z,5.42
2023-01-29T23:12:37.820Z,5.40
2023-01-29T23:15:07.646Z,5.40
2023-01-29T23:17:36.989Z,5.50
2023-01-29T23:20:06.658Z,5.50
2023-01-29T23:22:34.855Z,5.60
2023-01-29T23:25:04.863Z,5.60
2023-01-29T23:27:32.624Z,5.60
2023-01-29T23:30:03.952Z,5.60
2023-01-29T23:32:35.586Z,5.60
2023-01-29T23:35:07.553Z,5.58
2023-01-29T23:37:37.195Z,5.50
2023-01-29T23:40:07.768Z,5.40
2023-01-29T23:42:37.912Z,5.20
2023-01-29T23:45:07.069Z,5.08
2023-01-29T23:47:36.866Z,4.90
2023-01-29T23:50:05.129Z,4.80
2023-01-29T23:52:34.664Z,4.76
2023-01-29T23:55:02.934Z,4.70
2023-01-29T23:57:36.032Z,4.68
